Time;durP1;ratioP1;P1;durP2;ratioP2;P2;SDS_P1;SDS_P2;PMS_P1;PMS_P2;Temp;Humidity;BMP_temperature;BMP_pressure;BME280_temperature;BME280_humidity;BME280_pressure;Samples;Min_cycle;Max_cycle;Signal;HPM_P1;HPM_P2
2022/08/15 00:02:24;;;;;;;12.57;11.27;;;22.50;99.90;;;;;;5054517;28;20098;-81
2022/08/15 00:04:50;;;;;;;13.25;12.00;;;22.50;99.90;;;;;;5053170;28;20052;-81
2022/08/15 00:07:16;;;;;;;16.42;13.38;;;22.40;99.90;;;;;;5053384;28;20041;-81
2022/08/15 00:09:41;;;;;;;13.95;12.55;;;22.40;99.90;;;;;;5054403;28;20045;-81
2022/08/15 00:12:07;;;;;;;15.63;12.75;;;22.50;99.90;;;;;;5054277;28;20037;-80
2022/08/15 00:14:35;;;;;;;14.45;12.95;;;22.50;99.90;;;;;;5053110;28;20479;-80
2022/08/15 00:17:09;;;;;;;14.02;12.63;;;22.50;99.90;;;;;;5054138;28;20056;-82
2022/08/15 00:19:38;;;;;;;13.15;11.52;;;22.40;99.90;;;;;;5052904;28;20045;-81
2022/08/15 00:22:06;;;;;;;12.45;11.25;;;22.40;99.90;;;;;;5053163;28;20040;-80
2022/08/15 00:24:35;;;;;;;12.23;11.02;;;22.30;99.90;;;;;;5054125;28;20048;-80
2022/08/15 00:27:05;;;;;;;15.15;11.40;;;22.20;99.90;;;;;;5053739;28;20408;-80
2022/08/15 00:29:32;;;;;;;13.45;12.18;;;22.20;99.90;;;;;;5052632;28;20096;-80
2022/08/15 00:32:03;;;;;;;15.25;11.35;;;22.10;99.90;;;;;;5054025;28;20037;-80
2022/08/15 00:34:28;;;;;;;13.07;11.73;;;22.00;99.90;;;;;;5052950;28;20127;-81
2022/08/15 00:36:54;;;;;;;12.10;10.90;;;21.90;99.90;;;;;;5052890;28;20072;-80
2022/08/15 00:39:24;;;;;;;11.55;10.45;;;21.90;99.90;;;;;;5053885;28;20045;-80
2022/08/15 00:41:51;;;;;;;12.40;11.10;;;21.80;99.90;;;;;;5053912;28;20048;-80
2022/08/15 00:44:32;;;;;;;12.00;10.80;;;21.80;99.90;;;;;;5052412;28;20483;-83
2022/08/15 00:47:01;;;;;;;11.95;10.63;;;21.70;99.90;;;;;;5052558;28;20389;-82
2022/08/15 00:49:30;;;;;;;11.77;10.68;;;21.60;99.90;;;;;;5053727;28;20120;-82
2022/08/15 00:52:03;;;;;;;12.05;10.82;;;21.60;99.90;;;;;;5052247;28;20125;-81
2022/08/15 00:54:50;;;;;;;11.88;10.68;;;21.50;99.90;;;;;;5052408;28;20067;-80
2022/08/15 00:57:22;;;;;;;11.30;10.18;;;21.50;99.90;;;;;;5053657;28;20044;-80
2022/08/15 00:59:53;;;;;;;11.53;10.33;;;21.40;99.90;;;;;;5053737;28;20044;-80
2022/08/15 01:02:21;;;;;;;11.32;10.15;;;21.40;99.90;;;;;;5053684;28;20041;-80
2022/08/15 01:04:47;;;;;;;13.05;11.75;;;21.40;99.90;;;;;;5052597;28;20501;-80
2022/08/15 01:07:14;;;;;;;10.98;9.88;;;21.30;99.90;;;;;;5053563;28;20049;-80
2022/08/15 01:09:42;;;;;;;13.85;11.38;;;21.40;99.90;;;;;;5053369;28;20043;-80
2022/08/15 01:12:13;;;;;;;12.90;11.55;;;21.40;99.90;;;;;;5053462;28;20461;-81
2022/08/15 01:14:43;;;;;;;13.50;11.20;;;21.40;99.90;;;;;;5053482;28;20128;-81
2022/08/15 01:17:09;;;;;;;12.27;10.95;;;21.50;99.90;;;;;;5053510;28;20053;-81
2022/08/15 01:20:03;;;;;;;12.30;10.45;;;21.50;99.90;;;;;;5053247;28;20483;-81
2022/08/15 01:22:46;;;;;;;12.63;11.18;;;21.50;99.90;;;;;;5041524;28;20063;-81
2022/08/15 01:25:23;;;;;;;16.75;11.57;;;21.40;99.90;;;;;;5053220;28;20049;-80
2022/08/15 01:28:03;;;;;;;13.45;10.85;;;21.40;99.90;;;;;;5052047;28;20061;-80
2022/08/15 01:30:35;;;;;;;12.52;11.02;;;21.40;99.90;;;;;;5053326;28;20052;-81
2022/08/15 01:33:01;;;;;;;12.20;10.98;;;21.30;99.90;;;;;;5053102;28;20416;-81
2022/08/15 01:35:28;;;;;;;14.18;12.70;;;21.30;99.90;;;;;;5052017;28;20056;-80
2022/08/15 01:37:56;;;;;;;14.23;11.57;;;21.20;99.90;;;;;;5053210;28;20132;-80
2022/08/15 01:40:47;;;;;;;12.10;10.85;;;21.20;99.90;;;;;;5053200;28;20080;-80
2022/08/15 01:43:19;;;;;;;13.10;11.60;;;21.20;99.90;;;;;;5053397;28;20041;-80
2022/08/15 01:45:46;;;;;;;13.38;11.35;;;21.10;99.90;;;;;;5053221;28;20048;-80
2022/08/15 01:48:30;;;;;;;13.95;11.73;;;21.00;99.90;;;;;;5052972;28;20060;-80
2022/08/15 01:51:00;;;;;;;13.13;11.73;;;21.00;99.90;;;;;;5052110;28;20132;-80
2022/08/15 01:53:39;;;;;;;13.38;11.98;;;21.00;99.90;;;;;;5052163;28;20075;-80
2022/08/15 01:56:18;;;;;;;17.55;12.88;;;20.90;99.90;;;;;;5051892;28;20053;-79
2022/08/15 01:58:45;;;;;;;13.02;11.73;;;20.90;99.90;;;;;;5051795;28;20128;-80
2022/08/15 02:01:14;;;;;;;16.00;12.35;;;20.90;99.90;;;;;;5052969;28;20068;-80
2022/08/15 02:03:42;;;;;;;14.48;12.98;;;20.90;99.90;;;;;;5052960;28;20076;-80
2022/08/15 02:06:11;;;;;;;13.25;11.95;;;20.90;99.90;;;;;;5053037;28;20052;-79
2022/08/15 02:08:37;;;;;;;14.77;13.30;;;20.90;99.90;;;;;;5053024;28;20037;-79
2022/08/15 02:11:09;;;;;;;14.20;12.73;;;20.90;99.90;;;;;;5052919;28;20073;-79
2022/08/15 02:13:34;;;;;;;14.20;12.82;;;20.90;99.90;;;;;;5053253;28;20048;-79
2022/08/15 02:16:01;;;;;;;14.95;13.15;;;20.80;99.90;;;;;;5053275;28;20040;-79
2022/08/15 02:18:27;;;;;;;15.13;13.45;;;20.90;99.90;;;;;;5055265;28;20515;-80
2022/08/15 02:20:54;;;;;;;16.13;13.75;;;20.90;99.90;;;;;;5056444;28;20094;-79
2022/08/15 02:23:20;;;;;;;15.40;13.77;;;20.80;99.90;;;;;;5056421;28;20501;-79
2022/08/15 02:25:47;;;;;;;14.70;13.20;;;20.80;99.90;;;;;;5054994;28;20071;-79
2022/08/15 02:28:13;;;;;;;15.05;13.55;;;20.80;99.90;;;;;;5056143;28;20511;-79
2022/08/15 02:30:39;;;;;;;15.45;13.48;;;20.80;99.90;;;;;;5056241;28;20503;-79
2022/08/15 02:33:05;;;;;;;15.88;14.23;;;20.80;99.90;;;;;;5056219;28;20045;-79
2022/08/15 02:35:31;;;;;;;17.00;13.13;;;20.80;99.90;;;;;;5056308;28;20132;-80
2022/08/15 02:38:04;;;;;;;15.32;13.73;;;20.80;99.90;;;;;;5056057;28;20049;-79
2022/08/15 02:40:30;;;;;;;15.13;13.55;;;20.80;99.90;;;;;;5056193;28;20045;-80
2022/08/15 02:43:03;;;;;;;14.70;13.20;;;20.80;99.90;;;;;;5055881;28;20481;-80
2022/08/15 02:45:34;;;;;;;16.73;13.70;;;20.80;99.90;;;;;;5054982;28;20127;-79
2022/08/15 02:48:00;;;;;;;15.10;13.48;;;20.70;99.90;;;;;;5055014;28;20393;-80
2022/08/15 02:50:26;;;;;;;14.82;13.32;;;20.70;99.90;;;;;;5054868;28;20469;-80
2022/08/15 02:52:52;;;;;;;17.15;14.40;;;20.70;99.90;;;;;;5055890;28;20041;-80
2022/08/15 02:55:19;;;;;;;15.23;13.63;;;20.70;99.90;;;;;;5054964;28;20106;-80
2022/08/15 02:57:45;;;;;;;15.75;13.95;;;20.70;99.90;;;;;;5055727;28;20056;-80
2022/08/15 03:00:15;;;;;;;15.95;14.35;;;20.70;99.90;;;;;;5055766;28;20064;-79
2022/08/15 03:02:56;;;;;;;15.63;13.98;;;20.70;99.90;;;;;;5055607;28;20428;-79
2022/08/15 03:05:27;;;;;;;16.58;14.80;;;20.70;99.90;;;;;;5054472;28;20052;-80
2022/08/15 03:07:54;;;;;;;16.48;14.75;;;20.70;99.90;;;;;;5054228;28;20396;-79
2022/08/15 03:10:19;;;;;;;15.63;13.77;;;20.60;99.90;;;;;;5055412;28;20496;-80
2022/08/15 03:12:53;;;;;;;16.52;14.82;;;20.60;99.90;;;;;;5054448;28;20080;-79
2022/08/15 03:15:22;;;;;;;15.75;14.15;;;20.60;99.90;;;;;;5055431;28;20041;-79
2022/08/15 03:17:49;;;;;;;16.05;14.38;;;20.60;99.90;;;;;;5053954;28;20095;-79
2022/08/15 03:20:15;;;;;;;15.63;13.77;;;20.60;99.90;;;;;;5053986;28;20057;-79
2022/08/15 03:22:46;;;;;;;17.65;15.18;;;20.60;99.90;;;;;;5055325;28;20112;-79
2022/08/15 03:25:13;;;;;;;16.65;14.15;;;20.50;99.90;;;;;;5053958;28;20048;-79
2022/08/15 03:27:40;;;;;;;18.08;15.38;;;20.50;99.90;;;;;;5054483;28;20099;-79
2022/08/15 03:30:09;;;;;;;17.27;14.63;;;20.50;99.90;;;;;;5054026;28;20140;-80
2022/08/15 03:33:05;;;;;;;17.58;15.57;;;20.50;99.90;;;;;;5053964;28;20041;-79
2022/08/15 03:35:36;;;;;;;18.17;15.35;;;20.50;99.90;;;;;;5037656;28;20524;-79
2022/08/15 03:38:02;;;;;;;18.25;14.57;;;20.50;99.90;;;;;;5053957;28;20102;-79
2022/08/15 03:40:28;;;;;;;16.35;14.55;;;20.50;99.90;;;;;;5053961;28;20041;-79
2022/08/15 03:43:00;;;;;;;17.40;15.05;;;20.50;99.90;;;;;;5054900;28;20123;-79
2022/08/15 03:45:27;;;;;;;17.27;15.05;;;20.50;99.90;;;;;;5053639;28;20055;-80
2022/08/15 03:47:53;;;;;;;17.75;15.88;;;20.50;99.90;;;;;;5054883;28;20041;-79
2022/08/15 03:50:20;;;;;;;16.02;14.32;;;20.50;99.90;;;;;;5053982;28;20044;-79
2022/08/15 03:53:06;;;;;;;17.13;15.32;;;20.50;99.90;;;;;;5054722;28;20047;-79
2022/08/15 03:55:36;;;;;;;17.20;15.45;;;20.50;99.90;;;;;;5054761;28;20044;-79
2022/08/15 03:58:03;;;;;;;15.15;13.55;;;20.50;99.90;;;;;;5053192;28;20503;-79
2022/08/15 04:00:33;;;;;;;16.73;14.18;;;20.50;99.90;;;;;;5053269;28;20186;-79
2022/08/15 04:03:11;;;;;;;16.17;14.48;;;20.50;99.90;;;;;;5053552;28;20116;-79
2022/08/15 04:05:38;;;;;;;18.20;14.05;;;20.50;99.90;;;;;;5052890;28;20041;-78
2022/08/15 04:08:07;;;;;;;16.40;14.80;;;20.60;99.90;;;;;;5053307;28;20053;-79
2022/08/15 04:10:33;;;;;;;15.98;14.25;;;20.60;99.90;;;;;;5053629;28;20500;-80
2022/08/15 04:13:01;;;;;;;16.13;14.52;;;20.60;99.90;;;;;;5051781;28;20055;-79
2022/08/15 04:15:27;;;;;;;20.80;14.85;;;20.50;99.90;;;;;;5053716;28;20036;-79
2022/08/15 04:17:54;;;;;;;17.17;14.05;;;20.60;99.90;;;;;;5054040;28;20052;-79
2022/08/15 04:20:21;;;;;;;16.95;14.07;;;20.60;99.90;;;;;;5054228;28;20124;-79
2022/08/15 04:22:49;;;;;;;20.17;15.25;;;20.60;99.90;;;;;;5054126;28;20040;-79
2022/08/15 04:25:28;;;;;;;17.65;15.23;;;20.60;99.90;;;;;;5052842;28;20484;-79
2022/08/15 04:28:03;;;;;;;17.02;15.13;;;20.60;99.90;;;;;;5054093;28;20049;-79
2022/08/15 04:30:32;;;;;;;16.55;14.85;;;20.60;99.90;;;;;;5054021;28;20106;-79
2022/08/15 04:33:13;;;;;;;17.38;15.60;;;20.60;99.90;;;;;;5053659;28;20511;-79
2022/08/15 04:35:41;;;;;;;16.83;14.93;;;20.70;99.90;;;;;;5052604;28;20041;-79
2022/08/15 04:38:07;;;;;;;17.70;15.57;;;20.60;99.90;;;;;;5052261;28;20465;-79
2022/08/15 04:40:33;;;;;;;17.20;15.35;;;20.70;99.90;;;;;;5052549;28;20053;-79
2022/08/15 04:43:00;;;;;;;17.23;15.15;;;20.70;99.90;;;;;;5053769;28;20037;-79
2022/08/15 04:45:27;;;;;;;16.83;15.10;;;20.70;99.90;;;;;;5053848;28;20059;-79
2022/08/15 04:47:53;;;;;;;16.35;14.25;;;20.70;99.90;;;;;;5053479;28;20485;-79
2022/08/15 04:50:20;;;;;;;18.58;15.25;;;20.80;99.90;;;;;;5052255;28;20123;-79
2022/08/15 04:52:49;;;;;;;23.40;15.50;;;20.80;99.90;;;;;;5053695;28;20045;-79
2022/08/15 04:55:15;;;;;;;20.13;16.27;;;20.90;99.90;;;;;;5053574;28;20056;-78
2022/08/15 04:57:41;;;;;;;17.35;15.63;;;20.90;99.90;;;;;;5052315;28;20056;-78
2022/08/15 05:00:12;;;;;;;18.48;16.65;;;21.00;99.90;;;;;;5052038;28;20080;-78
2022/08/15 05:02:38;;;;;;;17.13;15.23;;;21.00;99.90;;;;;;5052360;28;20078;-78
2022/08/15 05:05:06;;;;;;;17.52;15.73;;;21.00;99.90;;;;;;5053522;28;20041;-78
2022/08/15 05:07:32;;;;;;;19.17;16.83;;;21.00;99.90;;;;;;5053384;28;20535;-78
2022/08/15 05:09:59;;;;;;;17.98;16.08;;;21.00;99.90;;;;;;5053260;28;20055;-79
2022/08/15 05:12:26;;;;;;;19.05;16.67;;;21.10;99.90;;;;;;5053535;28;20156;-77
2022/08/15 05:14:51;;;;;;;18.73;16.52;;;21.10;99.90;;;;;;5053181;28;20049;-78
2022/08/15 05:17:17;;;;;;;19.20;17.20;;;21.10;99.90;;;;;;5053471;28;20086;-79
2022/08/15 05:19:43;;;;;;;20.45;18.15;;;21.10;99.90;;;;;;5053207;28;20056;-78
2022/08/15 05:22:09;;;;;;;17.55;15.80;;;21.10;99.90;;;;;;5053533;28;20041;-78
2022/08/15 05:24:36;;;;;;;19.42;16.00;;;21.20;99.90;;;;;;5051870;28;20055;-78
2022/08/15 05:27:02;;;;;;;18.10;16.13;;;21.20;99.90;;;;;;5053008;28;20055;-78
2022/08/15 05:29:27;;;;;;;20.98;16.77;;;21.30;99.90;;;;;;5053096;28;20124;-78
2022/08/15 05:31:54;;;;;;;20.17;16.65;;;21.30;99.90;;;;;;5052088;28;20123;-78
2022/08/15 05:34:19;;;;;;;17.23;15.25;;;21.30;99.90;;;;;;5053088;28;20049;-79
2022/08/15 05:36:49;;;;;;;18.25;16.33;;;21.30;99.90;;;;;;5053044;28;20037;-79
2022/08/15 05:39:22;;;;;;;17.75;15.95;;;21.40;99.90;;;;;;5051554;28;20056;-79
2022/08/15 05:42:16;;;;;;;18.70;16.73;;;21.40;99.90;;;;;;5052994;28;20041;-78
2022/08/15 05:44:59;;;;;;;19.80;16.23;;;21.50;99.90;;;;;;5053243;28;20064;-78
2022/08/15 05:47:33;;;;;;;18.13;16.23;;;21.50;99.90;;;;;;5051904;28;20053;-79
2022/08/15 05:50:19;;;;;;;19.10;16.60;;;21.60;99.90;;;;;;5053243;28;20116;-79
2022/08/15 05:53:20;;;;;;;19.05;16.60;;;21.60;99.90;;;;;;5054782;28;20141;-79
2022/08/15 05:56:03;;;;;;;18.08;16.27;;;21.70;99.90;;;;;;5056840;28;20484;-79
2022/08/15 05:58:42;;;;;;;19.42;16.95;;;21.70;99.90;;;;;;5056847;28;20098;-79
2022/08/15 06:01:16;;;;;;;17.95;16.10;;;21.90;99.90;;;;;;5056862;28;20231;-78
2022/08/15 06:03:53;;;;;;;18.23;15.98;;;22.00;99.90;;;;;;5056684;28;20097;-79
2022/08/15 06:06:22;;;;;;;18.27;16.20;;;22.10;99.90;;;;;;5056698;28;20040;-79
2022/08/15 06:08:52;;;;;;;18.48;16.52;;;22.20;99.90;;;;;;5056667;28;20045;-78
2022/08/15 06:11:27;;;;;;;17.20;15.35;;;22.30;99.90;;;;;;5056578;28;20049;-79
2022/08/15 06:13:58;;;;;;;19.08;15.15;;;22.40;99.90;;;;;;5056629;28;20123;-78
2022/08/15 06:16:52;;;;;;;17.13;15.32;;;22.50;99.90;;;;;;5055076;28;20587;-78
2022/08/15 06:19:28;;;;;;;17.23;14.85;;;22.70;99.90;;;;;;5047434;28;20064;-78
2022/08/15 06:22:05;;;;;;;16.52;14.88;;;22.90;99.90;;;;;;5056681;28;20124;-78
2022/08/15 06:24:37;;;;;;;17.52;13.88;;;23.00;99.90;;;;;;5056254;28;20080;-79
2022/08/15 06:27:32;;;;;;;16.25;14.48;;;23.20;99.90;;;;;;5055939;28;20136;-78
2022/08/15 06:30:09;;;;;;;16.30;14.60;;;23.40;99.90;;;;;;5056351;28;20053;-78
2022/08/15 06:33:07;;;;;;;16.85;15.05;;;23.50;99.90;;;;;;5056174;28;20103;-78
2022/08/15 06:35:45;;;;;;;16.83;15.18;;;23.70;99.90;;;;;;5024303;28;20051;-79
2022/08/15 06:38:35;;;;;;;17.42;15.50;;;23.80;99.90;;;;;;5056037;28;20116;-79
2022/08/15 06:41:08;;;;;;;19.77;16.02;;;23.80;99.90;;;;;;5056125;28;20041;-78
2022/08/15 06:43:34;;;;;;;17.50;15.75;;;24.00;99.90;;;;;;5053611;28;20153;-77
2022/08/15 06:46:03;;;;;;;16.85;14.65;;;24.20;99.90;;;;;;5046855;28;20045;-80
2022/08/15 06:48:35;;;;;;;18.05;14.45;;;24.30;99.90;;;;;;5034396;28;20121;-78
2022/08/15 06:51:03;;;;;;;15.55;13.95;;;24.30;99.90;;;;;;5035531;28;20046;-78
2022/08/15 06:53:36;;;;;;;15.90;14.15;;;24.30;99.90;;;;;;5035815;28;20041;-79
2022/08/15 06:56:21;;;;;;;15.32;13.73;;;24.30;99.90;;;;;;5034135;28;20085;-78
2022/08/15 06:59:26;;;;;;;15.15;13.60;;;24.30;99.90;;;;;;5034242;28;20049;-78
2022/08/15 07:01:52;;;;;;;15.60;14.00;;;24.30;99.90;;;;;;5033575;28;20060;-78
2022/08/15 07:04:33;;;;;;;14.95;13.45;;;24.50;99.90;;;;;;5034159;28;20038;-78
2022/08/15 07:07:08;;;;;;;15.75;13.85;;;24.60;99.90;;;;;;5035477;28;20029;-78
2022/08/15 07:09:57;;;;;;;13.75;11.88;;;24.80;99.90;;;;;;5035438;28;20489;-78
2022/08/15 07:12:34;;;;;;;13.52;12.23;;;25.00;99.90;;;;;;5033868;28;20050;-78
2022/08/15 07:15:18;;;;;;;15.45;13.90;;;25.30;99.90;;;;;;5033802;28;20048;-78
2022/08/15 07:17:49;;;;;;;16.17;14.52;;;25.30;99.90;;;;;;5034103;28;20041;-78
2022/08/15 07:20:15;;;;;;;18.83;14.95;;;25.30;99.90;;;;;;5035122;28;20045;-78
2022/08/15 07:22:42;;;;;;;17.77;15.85;;;25.30;99.90;;;;;;5034166;28;20057;-78
2022/08/15 07:25:11;;;;;;;18.70;16.90;;;25.40;99.90;;;;;;5035174;28;20122;-78
2022/08/15 07:27:37;;;;;;;18.35;16.30;;;25.10;99.90;;;;;;5033242;28;20402;-78
2022/08/15 07:30:07;;;;;;;18.55;16.70;;;25.20;99.90;;;;;;5035045;28;20058;-78
2022/08/15 07:32:55;;;;;;;17.90;16.10;;;25.00;99.90;;;;;;5033730;28;20377;-78
2022/08/15 07:35:33;;;;;;;17.48;15.77;;;25.00;99.90;;;;;;5034794;28;20066;-78
2022/08/15 07:38:07;;;;;;;17.77;16.08;;;25.10;99.90;;;;;;5034537;28;20046;-79
2022/08/15 07:40:42;;;;;;;17.05;15.45;;;25.00;99.90;;;;;;5033378;28;20232;-78
2022/08/15 07:43:32;;;;;;;18.95;17.15;;;25.00;99.90;;;;;;5033280;28;20136;-78
2022/08/15 07:46:10;;;;;;;17.25;15.25;;;25.10;99.90;;;;;;5034663;28;20548;-78
2022/08/15 07:48:36;;;;;;;17.15;15.25;;;25.30;99.90;;;;;;5033400;28;20129;-77
2022/08/15 07:51:15;;;;;;;18.38;15.48;;;25.40;99.90;;;;;;5034608;28;20072;-78
2022/08/15 07:53:57;;;;;;;17.92;16.23;;;25.60;99.90;;;;;;5034402;28;20515;-78
2022/08/15 07:56:24;;;;;;;15.63;13.50;;;25.50;99.90;;;;;;5034593;28;20046;-78
2022/08/15 07:59:08;;;;;;;15.05;13.57;;;25.70;99.90;;;;;;5043330;28;20045;-77
2022/08/15 08:01:34;;;;;;;14.23;12.73;;;25.90;99.90;;;;;;5051139;28;20042;-76
2022/08/15 08:04:11;;;;;;;14.73;12.85;;;26.10;99.90;;;;;;5052785;28;20559;-77
2022/08/15 08:06:39;;;;;;;14.55;13.07;;;26.20;99.90;;;;;;5044602;28;20046;-77
2022/08/15 08:09:25;;;;;;;16.27;14.10;;;26.30;99.90;;;;;;5033973;28;20041;-77
2022/08/15 08:11:55;;;;;;;14.60;13.02;;;26.40;99.90;;;;;;5034308;28;20094;-76
2022/08/15 08:14:44;;;;;;;15.93;14.43;;;26.50;99.90;;;;;;5032291;28;20038;-77
2022/08/15 08:17:39;;;;;;;14.13;12.70;;;26.50;99.90;;;;;;5033996;28;20045;-77
2022/08/15 08:20:13;;;;;;;16.13;14.52;;;26.60;99.90;;;;;;5032501;28;20489;-78
2022/08/15 08:23:07;;;;;;;15.10;13.60;;;26.80;99.90;;;;;;5033793;28;20463;-78
2022/08/15 08:25:57;;;;;;;16.30;13.05;;;27.00;99.90;;;;;;5025299;28;20479;-77
2022/08/15 08:28:42;;;;;;;15.20;13.60;;;27.10;99.90;;;;;;5038909;28;20127;-77
2022/08/15 08:31:23;;;;;;;27.35;15.63;;;27.20;99.90;;;;;;5052252;28;20049;-77
2022/08/15 08:34:12;;;;;;;15.00;13.40;;;27.40;99.90;;;;;;5053817;28;20064;-78
2022/08/15 08:36:41;;;;;;;15.40;13.68;;;27.50;99.90;;;;;;5053457;28;20408;-78
2022/08/15 08:39:25;;;;;;;15.65;13.48;;;27.40;99.90;;;;;;5051450;28;20537;-78
2022/08/15 08:42:22;;;;;;;14.32;12.93;;;27.30;99.90;;;;;;5052197;28;20120;-77
2022/08/15 08:45:06;;;;;;;17.63;14.68;;;27.30;99.90;;;;;;5052084;28;20089;-76
2022/08/15 08:47:40;;;;;;;16.20;13.70;;;27.10;99.90;;;;;;5052207;28;20060;-78
2022/08/15 08:50:09;;;;;;;16.52;14.82;;;27.00;99.90;;;;;;5053444;28;20052;-77
2022/08/15 08:52:59;;;;;;;17.20;15.52;;;27.10;99.90;;;;;;5053474;28;20043;-77
2022/08/15 08:55:47;;;;;;;15.77;14.30;;;27.10;99.90;;;;;;5053456;28;20044;-79
2022/08/15 08:58:27;;;;;;;15.43;13.82;;;27.00;99.90;;;;;;5051985;28;20468;-78
2022/08/15 09:00:55;;;;;;;14.15;12.85;;;26.90;99.90;;;;;;5053278;28;20051;-78
2022/08/15 09:03:29;;;;;;;14.27;12.13;;;26.80;99.90;;;;;;5053221;28;20056;-79
2022/08/15 09:05:57;;;;;;;14.77;13.27;;;26.80;99.90;;;;;;5051796;28;20064;-78
2022/08/15 09:08:51;;;;;;;13.05;11.63;;;26.90;99.90;;;;;;5053053;28;20123;-78
2022/08/15 09:11:42;;;;;;;13.90;12.20;;;27.00;99.90;;;;;;5051897;28;20045;-79
2022/08/15 09:14:33;;;;;;;15.23;12.30;;;27.10;99.90;;;;;;5040495;28;20092;-78
2022/08/15 09:17:06;;;;;;;12.23;11.00;;;27.10;99.90;;;;;;5052991;28;20040;-78
2022/08/15 09:19:44;;;;;;;13.25;11.20;;;27.10;99.90;;;;;;5052870;28;20527;-79
2022/08/15 09:22:10;;;;;;;13.45;10.82;;;27.20;99.90;;;;;;5051662;28;20048;-77
2022/08/15 09:24:36;;;;;;;15.15;10.18;;;26.90;99.90;;;;;;5052991;28;20041;-79
2022/08/15 09:27:25;;;;;;;11.27;9.98;;;26.90;99.90;;;;;;5054779;28;20503;-79
2022/08/15 09:30:01;;;;;;;11.60;10.43;;;27.00;99.90;;;;;;5037159;28;20044;-78
2022/08/15 09:32:26;;;;;;;14.50;11.85;;;26.90;99.90;;;;;;5051662;28;20049;-78
2022/08/15 09:34:58;;;;;;;12.70;11.38;;;26.80;99.90;;;;;;5057164;28;20052;-79
2022/08/15 09:37:24;;;;;;;12.73;10.30;;;26.80;99.90;;;;;;5056713;28;20040;-78
2022/08/15 09:39:56;;;;;;;12.98;11.25;;;26.80;99.90;;;;;;5056952;28;20055;-78
2022/08/15 09:42:52;;;;;;;13.38;11.18;;;26.70;99.90;;;;;;5056882;28;20040;-79
2022/08/15 09:45:34;;;;;;;11.20;10.07;;;26.90;99.90;;;;;;5056904;28;20047;-78
2022/08/15 09:48:15;;;;;;;13.05;10.52;;;27.10;99.90;;;;;;5056710;28;20049;-79
2022/08/15 09:50:59;;;;;;;14.68;11.65;;;27.50;99.90;;;;;;5056885;28;20139;-83
2022/08/15 09:53:54;;;;;;;12.90;11.30;;;27.60;99.90;;;;;;5055312;28;20049;-79
2022/08/15 09:56:22;;;;;;;13.90;11.50;;;27.60;99.90;;;;;;5056621;28;20401;-78
2022/08/15 09:59:04;;;;;;;12.32;11.13;;;27.70;99.90;;;;;;5055113;28;20128;-78
2022/08/15 10:01:40;;;;;;;12.23;10.85;;;27.70;99.90;;;;;;5054040;28;20090;-81
2022/08/15 10:04:13;;;;;;;11.65;10.50;;;27.80;99.90;;;;;;5056733;28;20037;-83
2022/08/15 10:07:51;;;;;;;11.73;10.52;;;28.00;99.90;;;;;;5056569;28;20064;-79
2022/08/15 10:10:18;;;;;;;13.13;11.20;;;28.00;99.90;;;;;;5023237;28;20063;-78
2022/08/15 10:13:21;;;;;;;12.75;10.95;;;28.20;99.90;;;;;;5055165;28;20060;-79
2022/08/15 10:15:48;;;;;;;11.20;9.93;;;28.30;99.90;;;;;;5034535;28;20068;-79
2022/08/15 10:18:22;;;;;;;11.43;10.32;;;28.40;99.90;;;;;;5047470;28;20504;-79
2022/08/15 10:21:17;;;;;;;14.70;11.02;;;28.50;99.90;;;;;;5056300;28;20391;-78
2022/08/15 10:23:46;;;;;;;13.43;10.65;;;28.80;99.90;;;;;;5056260;28;20052;-80
2022/08/15 10:26:21;;;;;;;11.88;10.23;;;28.90;99.90;;;;;;5055045;28;20111;-79
2022/08/15 10:28:59;;;;;;;14.27;11.65;;;29.10;99.90;;;;;;5056265;28;20132;-80
2022/08/15 10:31:30;;;;;;;12.82;11.50;;;29.30;99.90;;;;;;5048379;28;20045;-79
2022/08/15 10:34:00;;;;;;;12.23;11.05;;;29.20;99.90;;;;;;5054797;28;20045;-79
2022/08/15 10:36:36;;;;;;;12.00;10.80;;;29.20;99.90;;;;;;5053993;28;20095;-79
2022/08/15 10:39:02;;;;;;;14.05;10.45;;;29.20;99.90;;;;;;5045343;28;20444;-79
2022/08/15 10:41:46;;;;;;;11.48;10.27;;;29.10;99.90;;;;;;5051903;28;20068;-79
2022/08/15 10:44:30;;;;;;;12.82;10.43;;;29.20;99.90;;;;;;5045601;28;20049;-79
2022/08/15 10:47:05;;;;;;;11.98;10.77;;;29.30;99.90;;;;;;5046293;28;20037;-79
2022/08/15 10:50:05;;;;;;;11.10;10.00;;;29.30;99.90;;;;;;5043997;28;20045;-78
2022/08/15 10:52:44;;;;;;;9.85;8.95;;;29.10;99.90;;;;;;5044187;28;20397;-79
2022/08/15 10:55:25;;;;;;;9.20;8.25;;;28.80;99.90;;;;;;5045224;28;20396;-79
2022/08/15 10:57:56;;;;;;;8.73;7.75;;;28.80;99.90;;;;;;5036871;28;20050;-78
2022/08/15 11:00:51;;;;;;;7.97;7.23;;;28.90;99.90;;;;;;5042980;28;20139;-79
2022/08/15 11:03:39;;;;;;;8.32;7.53;;;28.90;99.90;;;;;;5055305;28;20540;-77
2022/08/15 11:06:14;;;;;;;8.73;7.60;;;28.80;99.90;;;;;;5044962;28;20045;-79
2022/08/15 11:08:49;;;;;;;10.15;8.65;;;28.60;99.80;;;;;;5046103;28;20045;-78
2022/08/15 11:11:18;;;;;;;11.18;8.38;;;28.60;99.90;;;;;;5047000;28;20107;-78
2022/08/15 11:13:54;;;;;;;10.75;8.70;;;28.70;99.90;;;;;;5045448;28;20079;-78
2022/08/15 11:16:32;;;;;;;10.20;8.75;;;28.70;99.90;;;;;;5035697;28;20068;-79
2022/08/15 11:19:02;;;;;;;13.18;9.95;;;28.90;99.90;;;;;;5033316;28;20045;-78
2022/08/15 11:21:49;;;;;;;10.90;9.57;;;29.10;99.90;;;;;;5033775;28;20505;-79
2022/08/15 11:24:26;;;;;;;11.52;9.38;;;29.50;99.90;;;;;;5034059;28;20051;-80
2022/08/15 11:27:11;;;;;;;10.57;9.13;;;29.90;99.90;;;;;;5033732;28;20094;-80
2022/08/15 11:29:37;;;;;;;11.90;10.35;;;30.00;99.90;;;;;;5035170;28;20128;-79
2022/08/15 11:32:04;;;;;;;15.27;10.20;;;30.20;99.90;;;;;;5035149;28;20041;-79
2022/08/15 11:34:40;;;;;;;12.75;11.38;;;30.40;99.90;;;;;;5033733;28;20045;-77
2022/08/15 11:37:38;;;;;;;13.68;11.25;;;30.50;99.00;;;;;;5033880;28;20041;-77
2022/08/15 11:40:07;;;;;;;12.25;10.95;;;30.40;98.70;;;;;;5032490;28;20497;-78
2022/08/15 11:42:42;;;;;;;10.68;9.65;;;30.40;99.40;;;;;;5034804;28;20049;-78
2022/08/15 11:45:18;;;;;;;12.52;9.88;;;30.30;99.50;;;;;;5034922;28;20473;-78
2022/08/15 11:47:56;;;;;;;12.57;9.68;;;30.30;98.90;;;;;;5034736;28;20053;-78
2022/08/15 11:50:51;;;;;;;10.80;9.80;;;30.30;99.60;;;;;;5034215;28;20060;-79
2022/08/15 11:53:19;;;;;;;12.75;9.88;;;30.30;99.50;;;;;;4998061;28;20548;-78
2022/08/15 11:55:45;;;;;;;12.95;11.65;;;30.00;99.20;;;;;;5033312;28;20049;-79
2022/08/15 11:58:11;;;;;;;11.25;10.05;;;29.90;99.20;;;;;;5033322;28;20051;-79
2022/08/15 12:00:37;;;;;;;13.18;11.77;;;29.60;99.80;;;;;;5034681;28;20124;-78
2022/08/15 12:03:27;;;;;;;13.52;11.55;;;29.40;99.90;;;;;;5034330;28;20409;-78
2022/08/15 12:05:56;;;;;;;13.10;11.55;;;29.10;99.90;;;;;;5033010;28;20060;-78
2022/08/15 12:08:30;;;;;;;12.48;11.27;;;28.90;99.90;;;;;;5033574;28;20045;-78
2022/08/15 12:11:14;;;;;;;12.15;10.88;;;28.90;99.90;;;;;;5034227;28;20052;-79
2022/08/15 12:14:02;;;;;;;12.50;11.20;;;28.80;99.90;;;;;;5033179;28;20164;-78
2022/08/15 12:16:30;;;;;;;13.45;11.95;;;28.70;99.90;;;;;;5034290;28;20128;-78
2022/08/15 12:18:56;;;;;;;14.00;12.70;;;28.60;99.90;;;;;;5033975;28;20456;-78
2022/08/15 12:21:23;;;;;;;13.65;12.25;;;28.50;99.90;;;;;;5034000;28;20054;-79
2022/08/15 12:23:57;;;;;;;14.30;11.48;;;28.40;99.90;;;;;;5034474;28;20033;-78
2022/08/15 12:26:28;;;;;;;11.70;10.55;;;28.30;99.90;;;;;;5033878;28;20054;-77
2022/08/15 12:28:55;;;;;;;14.93;11.07;;;28.20;99.90;;;;;;5034256;28;20063;-78
2022/08/15 12:31:30;;;;;;;15.50;12.27;;;28.20;99.90;;;;;;5033786;28;20451;-77
2022/08/15 12:34:04;;;;;;;13.10;11.77;;;28.00;99.90;;;;;;5034143;28;20099;-77
2022/08/15 12:36:31;;;;;;;12.48;11.15;;;28.00;99.90;;;;;;5033643;28;20504;-78
2022/08/15 12:38:57;;;;;;;15.75;12.38;;;27.80;99.90;;;;;;5033559;28;20330;-78
2022/08/15 12:41:24;;;;;;;12.68;11.38;;;27.70;99.90;;;;;;5046724;28;20480;-77
2022/08/15 12:43:50;;;;;;;14.07;11.43;;;27.70;99.90;;;;;;5053425;28;20083;-77
2022/08/15 12:46:16;;;;;;;15.00;11.98;;;27.70;99.90;;;;;;5052226;28;20068;-78
2022/08/15 12:48:43;;;;;;;12.95;11.43;;;27.80;99.90;;;;;;5053521;28;20036;-78
2022/08/15 12:51:09;;;;;;;13.88;11.60;;;27.70;99.90;;;;;;5053440;28;20044;-78
2022/08/15 12:53:38;;;;;;;14.52;12.05;;;27.80;99.90;;;;;;5052553;28;20400;-78
2022/08/15 12:56:07;;;;;;;13.13;11.82;;;27.80;99.90;;;;;;5050760;28;20491;-77
2022/08/15 12:58:33;;;;;;;12.98;11.60;;;27.80;99.90;;;;;;5042262;28;20046;-78
2022/08/15 13:01:00;;;;;;;13.30;11.90;;;27.80;99.90;;;;;;5044392;28;20080;-78
2022/08/15 13:03:28;;;;;;;19.35;12.32;;;27.90;99.90;;;;;;5042133;28;20037;-78